createdAt,value
2018-08-21T00:00:00.038Z,20.04
2018-08-21T00:00:04.242Z,20.05
2018-08-21T00:00:08.447Z,20.04
2018-08-21T00:00:12.646Z,20.04
2018-08-21T00:00:16.850Z,20.04
2018-08-21T00:00:20.944Z,20.04
2018-08-21T00:00:25.035Z,20.03
2018-08-21T00:00:29.229Z,20.04
2018-08-21T00:00:33.425Z,20.04
2018-08-21T00:00:37.621Z,20.03
2018-08-21T00:00:41.503Z,20.03
2018-08-21T00:00:45.595Z,20.03
2018-08-21T00:00:49.797Z,20.03
2018-08-21T00:00:54.115Z,20.03
2018-08-21T00:00:58.317Z,20.02
2018-08-21T00:01:02.517Z,20.03
2018-08-21T00:01:06.832Z,20.03
2018-08-21T00:01:10.963Z,20.04
2018-08-21T00:01:15.059Z,20.03
2018-08-21T00:01:19.363Z,20.02
2018-08-21T00:01:23.675Z,20.02
2018-08-21T00:01:27.887Z,20.02
2018-08-21T00:01:32.198Z,20.03
2018-08-21T00:01:36.403Z,20.03
2018-08-21T00:01:40.621Z,20.02
2018-08-21T00:01:44.946Z,20.02
2018-08-21T00:01:49.154Z,20.02
2018-08-21T00:01:53.360Z,20.02
2018-08-21T00:01:57.571Z,20.02
2018-08-21T00:02:01.659Z,20.02
2018-08-21T00:02:06.014Z,20.01
2018-08-21T00:02:10.321Z,20.01
2018-08-21T00:02:14.409Z,20.02
2018-08-21T00:02:18.713Z,20.01
2018-08-21T00:02:22.916Z,20.01
2018-08-21T00:02:27.117Z,20.01
2018-08-21T00:02:31.417Z,20.01
2018-08-21T00:02:35.724Z,20.01
2018-08-21T00:02:39.927Z,20.01
2018-08-21T00:02:44.235Z,20
2018-08-21T00:02:48.343Z,20.01
2018-08-21T00:02:52.438Z,20
2018-08-21T00:02:56.738Z,20
2018-08-21T00:03:00.943Z,20.01
2018-08-21T00:03:04.940Z,20.01
2018-08-21T00:03:09.031Z,20.01
2018-08-21T00:03:13.129Z,20
2018-08-21T00:03:17.329Z,20
2018-08-21T00:03:21.646Z,20.01
2018-08-21T00:03:25.957Z,20
2018-08-21T00:03:30.260Z,20
2018-08-21T00:03:34.562Z,19.99
2018-08-21T00:03:38.764Z,19.99
2018-08-21T00:03:42.857Z,19.99
2018-08-21T00:03:47.061Z,19.99
2018-08-21T00:03:51.050Z,19.99
2018-08-21T00:03:55.251Z,19.99
2018-08-21T00:03:59.365Z,20
2018-08-21T00:04:03.323Z,19.99
2018-08-21T00:04:07.645Z,19.99
2018-08-21T00:04:11.847Z,19.98
2018-08-21T00:04:16.049Z,19.99
2018-08-21T00:04:20.144Z,19.99
2018-08-21T00:04:24.345Z,19.99
2018-08-21T00:04:28.546Z,19.98
2018-08-21T00:04:32.853Z,19.98
2018-08-21T00:04:37.177Z,19.98
2018-08-21T00:04:41.275Z,19.98
2018-08-21T00:04:45.265Z,19.98
2018-08-21T00:04:49.466Z,19.98
2018-08-21T00:04:53.670Z,19.97
2018-08-21T00:04:57.869Z,19.98
2018-08-21T00:05:02.068Z,19.96
2018-08-21T00:05:06.167Z,19.97
2018-08-21T00:05:10.363Z,19.96
2018-08-21T00:05:14.664Z,19.96
2018-08-21T00:05:18.757Z,19.97
2018-08-21T00:05:22.894Z,19.96
2018-08-21T00:05:27.094Z,19.96
2018-08-21T00:05:31.391Z,19.96
2018-08-21T00:05:35.393Z,19.96
2018-08-21T00:05:39.485Z,19.95
2018-08-21T00:05:43.477Z,19.95
2018-08-21T00:05:47.687Z,19.95
2018-08-21T00:05:51.993Z,19.95
2018-08-21T00:05:55.979Z,19.95
2018-08-21T00:06:00.074Z,19.94
2018-08-21T00:06:04.309Z,19.94
2018-08-21T00:06:08.624Z,19.95
2018-08-21T00:06:12.722Z,19.93
2018-08-21T00:06:16.812Z,19.94
2018-08-21T00:06:21.114Z,19.94
2018-08-21T00:06:25.103Z,19.93
2018-08-21T00:06:29.309Z,19.93
2018-08-21T00:06:33.511Z,19.93
2018-08-21T00:06:37.814Z,19.93
2018-08-21T00:06:42.021Z,19.92
2018-08-21T00:06:46.338Z,19.92
2018-08-21T00:06:50.707Z,19.92
2018-08-21T00:06:54.797Z,19.92
2018-08-21T00:06:59.108Z,19.92
2018-08-21T00:07:03.466Z,19.92
2018-08-21T00:07:07.786Z,19.91
2018-08-21T00:07:11.884Z,19.92
2018-08-21T00:07:16.129Z,19.91
2018-08-21T00:07:20.233Z,19.91
2018-08-21T00:07:24.332Z,19.91
2018-08-21T00:07:28.426Z,19.91
2018-08-21T00:07:32.517Z,19.91
2018-08-21T00:07:36.516Z,19.91
2018-08-21T00:07:40.616Z,19.9
2018-08-21T00:07:44.934Z,19.91
2018-08-21T00:07:49.032Z,19.91
2018-08-21T00:07:53.353Z,19.91
2018-08-21T00:07:57.660Z,19.9
2018-08-21T00:08:01.867Z,19.9
2018-08-21T00:08:06.070Z,19.9
2018-08-21T00:08:10.389Z,19.89
2018-08-21T00:08:14.585Z,19.89
2018-08-21T00:08:18.781Z,19.89
2018-08-21T00:08:23.089Z,19.88
2018-08-21T00:08:27.292Z,19.9
2018-08-21T00:08:31.389Z,19.89
2018-08-21T00:08:35.699Z,19.89
2018-08-21T00:08:39.799Z,19.89
2018-08-21T00:08:43.995Z,19.89
2018-08-21T00:08:48.308Z,19.88
2018-08-21T00:08:52.403Z,19.88
2018-08-21T00:08:56.608Z,19.89
2018-08-21T00:09:00.850Z,19.87
2018-08-21T00:09:05.258Z,19.88
2018-08-21T00:09:09.249Z,19.88
2018-08-21T00:09:13.463Z,19.87
2018-08-21T00:09:17.773Z,19.87
2018-08-21T00:09:22.078Z,19.86
2018-08-21T00:09:26.412Z,19.87
2018-08-21T00:09:30.397Z,19.87
2018-08-21T00:09:34.703Z,19.87
2018-08-21T00:09:39.010Z,19.86
2018-08-21T00:09:43.323Z,19.86
2018-08-21T00:09:47.520Z,19.87
2018-08-21T00:09:51.717Z,19.86
2018-08-21T00:09:55.813Z,19.87
2018-08-21T00:10:00.120Z,19.87
2018-08-21T00:10:04.223Z,19.86
2018-08-21T00:10:08.530Z,19.86
2018-08-21T00:10:12.843Z,19.85
2018-08-21T00:10:17.150Z,19.86
2018-08-21T00:10:21.351Z,19.85
2018-08-21T00:10:25.663Z,19.85
2018-08-21T00:10:29.864Z,19.85
2018-08-21T00:10:34.061Z,19.85
2018-08-21T00:10:38.261Z,19.85
2018-08-21T00:10:42.468Z,19.85
2018-08-21T00:10:46.456Z,19.85
2018-08-21T00:10:50.657Z,19.85
2018-08-21T00:10:54.758Z,19.85
2018-08-21T00:10:58.957Z,19.84
2018-08-21T00:11:02.957Z,19.84
2018-08-21T00:11:07.047Z,19.84
2018-08-21T00:11:11.357Z,19.83
2018-08-21T00:11:15.448Z,19.84
2018-08-21T00:11:19.647Z,19.83
2018-08-21T00:11:23.956Z,19.83
2018-08-21T00:11:28.059Z,19.83
2018-08-21T00:11:32.378Z,19.83
2018-08-21T00:11:36.685Z,19.83
2018-08-21T00:11:40.672Z,19.82
2018-08-21T00:11:44.879Z,19.82
2018-08-21T00:11:49.188Z,19.82
2018-08-21T00:11:53.387Z,19.83
2018-08-21T00:11:57.695Z,19.82
2018-08-21T00:12:01.812Z,19.82
2018-08-21T00:12:05.798Z,19.82
2018-08-21T00:12:10.107Z,19.82
2018-08-21T00:12:14.415Z,19.82
2018-08-21T00:12:18.715Z,19.82
2018-08-21T00:12:22.912Z,19.81
2018-08-21T00:12:27.002Z,19.81
2018-08-21T00:12:31.299Z,19.81
2018-08-21T00:12:35.398Z,19.81
2018-08-21T00:12:39.706Z,19.8
2018-08-21T00:12:43.915Z,19.81
2018-08-21T00:12:48.112Z,19.81
2018-08-21T00:12:52.318Z,19.81
2018-08-21T00:12:56.510Z,19.81
2018-08-21T00:13:00.710Z,19.81
2018-08-21T00:13:04.809Z,19.8
2018-08-21T00:13:08.901Z,19.8
2018-08-21T00:13:13.105Z,19.79
2018-08-21T00:13:17.410Z,19.8
2018-08-21T00:13:21.612Z,19.8
2018-08-21T00:13:25.703Z,19.8
2018-08-21T00:13:29.795Z,19.79
2018-08-21T00:13:33.884Z,19.79
2018-08-21T00:13:38.191Z,19.8
2018-08-21T00:13:42.287Z,19.79
2018-08-21T00:13:46.495Z,19.79
2018-08-21T00:13:50.689Z,19.78
2018-08-21T00:13:54.993Z,19.78
2018-08-21T00:13:59.085Z,19.78
2018-08-21T00:14:03.310Z,19.78
2018-08-21T00:14:07.511Z,19.79
2018-08-21T00:14:11.605Z,19.77
2018-08-21T00:14:15.809Z,19.78
2018-08-21T00:14:20.017Z,19.77
2018-08-21T00:14:24.349Z,19.78
2018-08-21T00:14:28.346Z,19.77
2018-08-21T00:14:32.662Z,19.78
2018-08-21T00:14:36.871Z,19.77
2018-08-21T00:14:41.071Z,19.77
2018-08-21T00:14:45.266Z,19.76
2018-08-21T00:14:49.467Z,19.76
2018-08-21T00:14:53.557Z,19.76
2018-08-21T00:14:57.543Z,19.76
2018-08-21T00:15:01.742Z,19.76
2018-08-21T00:15:05.738Z,19.76
2018-08-21T00:15:10.040Z,19.76
2018-08-21T00:15:14.344Z,19.76
2018-08-21T00:15:18.438Z,19.76
2018-08-21T00:15:22.629Z,19.75
2018-08-21T00:15:26.723Z,19.75
2018-08-21T00:15:30.921Z,19.75
2018-08-21T00:15:35.008Z,19.76
2018-08-21T00:15:39.311Z,19.75
2018-08-21T00:15:43.507Z,19.74
2018-08-21T00:15:47.817Z,19.74
2018-08-21T00:15:52.161Z,19.74
2018-08-21T00:15:56.472Z,19.74
2018-08-21T00:16:00.671Z,19.74
2018-08-21T00:16:04.876Z,19.74
2018-08-21T00:16:08.970Z,19.74
2018-08-21T00:16:13.173Z,19.74
2018-08-21T00:16:17.365Z,19.73
2018-08-21T00:16:21.662Z,19.74
2018-08-21T00:16:25.858Z,19.73
2018-08-21T00:16:30.171Z,19.73
2018-08-21T00:16:34.364Z,19.73
2018-08-21T00:16:38.561Z,19.73
2018-08-21T00:16:42.646Z,19.73
2018-08-21T00:16:46.845Z,19.73
2018-08-21T00:16:51.148Z,19.73
2018-08-21T00:16:55.248Z,19.73
2018-08-21T00:16:59.451Z,19.72
2018-08-21T00:17:03.661Z,19.71
2018-08-21T00:17:07.854Z,19.72
2018-08-21T00:17:12.070Z,19.72
2018-08-21T00:17:16.268Z,19.71
2018-08-21T00:17:20.490Z,19.71
2018-08-21T00:17:24.692Z,19.71
2018-08-21T00:17:28.894Z,19.71
2018-08-21T00:17:33.096Z,19.71
2018-08-21T00:17:37.297Z,19.71
2018-08-21T00:17:41.284Z,19.7
2018-08-21T00:17:45.381Z,19.7
2018-08-21T00:17:49.695Z,19.71
2018-08-21T00:17:53.899Z,19.71
2018-08-21T00:17:58.007Z,19.71
2018-08-21T00:18:02.217Z,19.71
2018-08-21T00:18:06.321Z,19.7
2018-08-21T00:18:10.627Z,19.69
2018-08-21T00:18:14.617Z,19.7
2018-08-21T00:18:18.925Z,19.69
2018-08-21T00:18:23.126Z,19.69
2018-08-21T00:18:27.430Z,19.69
2018-08-21T00:18:31.739Z,19.68
2018-08-21T00:18:35.932Z,19.69
2018-08-21T00:18:40.031Z,19.69
2018-08-21T00:18:44.228Z,19.68
2018-08-21T00:18:48.442Z,19.67
2018-08-21T00:18:52.756Z,19.68
2018-08-21T00:18:57.067Z,19.67
2018-08-21T00:19:01.261Z,19.67
2018-08-21T00:19:05.349Z,19.67
2018-08-21T00:19:09.441Z,19.68
2018-08-21T00:19:13.750Z,19.67
2018-08-21T00:19:17.978Z,19.66
2018-08-21T00:19:22.292Z,19.67
2018-08-21T00:19:26.490Z,19.67
2018-08-21T00:19:30.482Z,19.66
2018-08-21T00:19:34.790Z,19.66
2018-08-21T00:19:38.990Z,19.65
2018-08-21T00:19:42.970Z,19.66
2018-08-21T00:19:47.068Z,19.65
2018-08-21T00:19:51.153Z,19.65
2018-08-21T00:19:55.358Z,19.64
2018-08-21T00:19:59.553Z,19.64
2018-08-21T00:20:03.694Z,19.64
2018-08-21T00:20:07.786Z,19.63
2018-08-21T00:20:12.090Z,19.63
2018-08-21T00:20:16.414Z,19.63
2018-08-21T00:20:20.714Z,19.63
2018-08-21T00:20:24.913Z,19.63
2018-08-21T00:20:29.222Z,19.62
2018-08-21T00:20:33.321Z,19.62
2018-08-21T00:20:37.623Z,19.62
2018-08-21T00:20:41.821Z,19.63
2018-08-21T00:20:46.022Z,19.63
2018-08-21T00:20:50.116Z,19.62
2018-08-21T00:20:54.418Z,19.62
2018-08-21T00:20:58.405Z,19.62
2018-08-21T00:21:02.815Z,19.61
2018-08-21T00:21:07.009Z,19.61
2018-08-21T00:21:11.207Z,19.61
2018-08-21T00:21:15.405Z,19.61
2018-08-21T00:21:19.603Z,19.6
2018-08-21T00:21:23.803Z,19.61
2018-08-21T00:21:27.916Z,19.6
2018-08-21T00:21:32.234Z,19.6
2018-08-21T00:21:36.533Z,19.6
2018-08-21T00:21:40.733Z,19.59
2018-08-21T00:21:45.036Z,19.59
2018-08-21T00:21:49.239Z,19.6
2018-08-21T00:21:53.546Z,19.59
2018-08-21T00:21:57.739Z,19.6
2018-08-21T00:22:01.943Z,19.59
2018-08-21T00:22:06.041Z,19.59
2018-08-21T00:22:10.247Z,19.59
2018-08-21T00:22:14.144Z,19.59
2018-08-21T00:22:18.345Z,19.59
2018-08-21T00:22:22.434Z,19.58
2018-08-21T00:22:26.631Z,19.58
2018-08-21T00:22:30.726Z,19.58
2018-08-21T00:22:34.824Z,19.58
2018-08-21T00:22:39.129Z,19.58
2018-08-21T00:22:43.226Z,19.57
2018-08-21T00:22:47.533Z,19.57
2018-08-21T00:22:51.727Z,19.58
2018-08-21T00:22:55.938Z,19.58
2018-08-21T00:23:00.133Z,19.57
2018-08-21T00:23:04.121Z,19.58
2018-08-21T00:23:08.321Z,19.57
2018-08-21T00:23:12.535Z,19.57
2018-08-21T00:23:16.843Z,19.57
2018-08-21T00:23:21.043Z,19.55
2018-08-21T00:23:25.242Z,19.56
2018-08-21T00:23:29.543Z,19.57
2018-08-21T00:23:33.638Z,19.55
2018-08-21T00:23:37.834Z,19.55
2018-08-21T00:23:41.931Z,19.55
2018-08-21T00:23:46.132Z,19.55
2018-08-21T00:23:50.331Z,19.55
2018-08-21T00:23:54.534Z,19.54
2018-08-21T00:23:58.836Z,19.54
2018-08-21T00:24:02.929Z,19.54
2018-08-21T00:24:07.243Z,19.54
2018-08-21T00:24:11.442Z,19.54
2018-08-21T00:24:15.638Z,19.53
2018-08-21T00:24:19.734Z,19.53
2018-08-21T00:24:23.986Z,19.53
2018-08-21T00:24:28.088Z,19.53
2018-08-21T00:24:32.394Z,19.53
2018-08-21T00:24:36.706Z,19.54
2018-08-21T00:24:40.911Z,19.53
2018-08-21T00:24:45.226Z,19.53
2018-08-21T00:24:49.434Z,19.53
2018-08-21T00:24:53.750Z,19.53
2018-08-21T00:24:57.954Z,19.52
2018-08-21T00:25:02.261Z,19.52
2018-08-21T00:25:06.145Z,19.52
2018-08-21T00:25:10.339Z,19.52
2018-08-21T00:25:14.549Z,19.51
2018-08-21T00:25:18.749Z,19.52
2018-08-21T00:25:23.063Z,19.52
2018-08-21T00:25:27.395Z,19.52
2018-08-21T00:25:31.646Z,19.51
2018-08-21T00:25:35.855Z,19.51
2018-08-21T00:25:40.055Z,19.51
2018-08-21T00:25:44.146Z,19.51
2018-08-21T00:25:48.454Z,19.5
2018-08-21T00:25:52.758Z,19.51
2018-08-21T00:25:57.056Z,19.5
2018-08-21T00:26:01.259Z,19.5
2018-08-21T00:26:05.507Z,19.5
2018-08-21T00:26:09.829Z,19.5
2018-08-21T00:26:13.917Z,19.49
2018-08-21T00:26:18.120Z,19.49
2018-08-21T00:26:22.314Z,19.49
2018-08-21T00:26:26.406Z,19.49
2018-08-21T00:26:30.394Z,19.49
2018-08-21T00:26:34.590Z,19.49
2018-08-21T00:26:38.891Z,19.49
2018-08-21T00:26:43.191Z,19.48
2018-08-21T00:26:47.277Z,19.48
2018-08-21T00:26:51.590Z,19.48
2018-08-21T00:26:55.902Z,19.47
2018-08-21T00:26:59.993Z,19.48
2018-08-21T00:27:04.131Z,19.48
2018-08-21T00:27:08.232Z,19.48
2018-08-21T00:27:12.533Z,19.48
2018-08-21T00:27:16.741Z,19.47
2018-08-21T00:27:20.940Z,19.47
2018-08-21T00:27:25.035Z,19.47
2018-08-21T00:27:29.237Z,19.46
2018-08-21T00:27:33.219Z,19.47
2018-08-21T00:27:37.415Z,19.46
2018-08-21T00:27:41.715Z,19.47
2018-08-21T00:27:45.815Z,19.47
2018-08-21T00:27:50.009Z,19.47
2018-08-21T00:27:54.101Z,19.46
2018-08-21T00:27:58.300Z,19.47
2018-08-21T00:28:02.499Z,19.46
2018-08-21T00:28:06.583Z,19.45
2018-08-21T00:28:10.783Z,19.46
2018-08-21T00:28:14.877Z,19.46
2018-08-21T00:28:19.074Z,19.46
2018-08-21T00:28:23.379Z,19.46
2018-08-21T00:28:27.469Z,19.45
2018-08-21T00:28:31.560Z,19.45
2018-08-21T00:28:35.546Z,19.45
2018-08-21T00:28:39.421Z,19.45
2018-08-21T00:28:43.514Z,19.45
2018-08-21T00:28:47.729Z,19.44
2018-08-21T00:28:51.923Z,19.44
2018-08-21T00:28:56.118Z,19.45
2018-08-21T00:29:00.355Z,19.44
2018-08-21T00:29:04.458Z,19.44
2018-08-21T00:29:08.653Z,19.44
2018-08-21T00:29:12.850Z,19.44
2018-08-21T00:29:16.945Z,19.43
2018-08-21T00:29:21.253Z,19.43
2018-08-21T00:29:25.346Z,19.43
2018-08-21T00:29:29.133Z,19.43
2018-08-21T00:29:33.435Z,19.43
2018-08-21T00:29:37.642Z,19.43
2018-08-21T00:29:41.994Z,19.42
2018-08-21T00:29:46.080Z,19.42
2018-08-21T00:29:50.167Z,19.43
2018-08-21T00:29:54.412Z,19.42
2018-08-21T00:29:58.617Z,19.42
2018-08-21T00:30:02.858Z,19.42
2018-08-21T00:30:06.846Z,19.41
2018-08-21T00:30:10.831Z,19.42
2018-08-21T00:30:14.919Z,19.42
2018-08-21T00:30:19.117Z,19.42
2018-08-21T00:30:23.310Z,19.42
2018-08-21T00:30:27.294Z,19.42
2018-08-21T00:30:31.600Z,19.41
2018-08-21T00:30:35.797Z,19.41
2018-08-21T00:30:40.107Z,19.4
2018-08-21T00:30:44.306Z,19.41
2018-08-21T00:30:48.610Z,19.41
2018-08-21T00:30:52.909Z,19.41
2018-08-21T00:30:57.214Z,19.4
2018-08-21T00:31:01.413Z,19.4
2018-08-21T00:31:05.613Z,19.41
2018-08-21T00:31:09.811Z,19.4
2018-08-21T00:31:13.821Z,19.4
2018-08-21T00:31:17.909Z,19.4
2018-08-21T00:31:21.891Z,19.4
2018-08-21T00:31:26.154Z,19.4
2018-08-21T00:31:30.246Z,19.4
2018-08-21T00:31:34.230Z,19.4
2018-08-21T00:31:38.322Z,19.39
2018-08-21T00:31:42.533Z,19.39
2018-08-21T00:31:46.845Z,19.39
2018-08-21T00:31:51.043Z,19.39
2018-08-21T00:31:55.253Z,19.39
2018-08-21T00:31:59.451Z,19.39
2018-08-21T00:32:03.544Z,19.39
2018-08-21T00:32:07.847Z,19.38
2018-08-21T00:32:12.160Z,19.38
2018-08-21T00:32:16.468Z,19.38
2018-08-21T00:32:20.774Z,19.39
2018-08-21T00:32:25.016Z,19.37
2018-08-21T00:32:29.213Z,19.38
2018-08-21T00:32:33.300Z,19.38
2018-08-21T00:32:37.387Z,19.37
2018-08-21T00:32:41.485Z,19.38
2018-08-21T00:32:45.695Z,19.38
2018-08-21T00:32:49.888Z,19.38
2018-08-21T00:32:54.093Z,19.37
2018-08-21T00:32:58.186Z,19.37
2018-08-21T00:33:02.397Z,19.37
2018-08-21T00:33:06.711Z,19.36
2018-08-21T00:33:10.908Z,19.37
2018-08-21T00:33:15.213Z,19.36
2018-08-21T00:33:19.301Z,19.37
2018-08-21T00:33:23.607Z,19.36
2018-08-21T00:33:27.913Z,19.36
2018-08-21T00:33:32.103Z,19.37
2018-08-21T00:33:36.190Z,19.36
2018-08-21T00:33:40.283Z,19.36
2018-08-21T00:33:44.590Z,19.36
2018-08-21T00:33:48.788Z,19.36
2018-08-21T00:33:52.881Z,19.36
2018-08-21T00:33:56.974Z,19.35
2018-08-21T00:34:01.169Z,19.36
2018-08-21T00:34:05.269Z,19.36
2018-08-21T00:34:09.471Z,19.36
2018-08-21T00:34:13.563Z,19.36
2018-08-21T00:34:17.764Z,19.35
2018-08-21T00:34:22.073Z,19.36
2018-08-21T00:34:26.273Z,19.35
2018-08-21T00:34:30.482Z,19.36
2018-08-21T00:34:34.786Z,19.35
2018-08-21T00:34:39.093Z,19.35
2018-08-21T00:34:43.296Z,19.35
2018-08-21T00:34:47.490Z,19.35
2018-08-21T00:34:51.795Z,19.35
2018-08-21T00:34:56.100Z,19.35
2018-08-21T00:35:00.295Z,19.35
2018-08-21T00:35:04.292Z,19.35
2018-08-21T00:35:08.495Z,19.35
2018-08-21T00:35:12.692Z,19.35
2018-08-21T00:35:16.888Z,19.35
2018-08-21T00:35:21.195Z,19.35
2018-08-21T00:35:25.389Z,19.34
2018-08-21T00:35:29.629Z,19.34
2018-08-21T00:35:33.838Z,19.34
2018-08-21T00:35:38.032Z,19.34
2018-08-21T00:35:42.234Z,19.35
2018-08-21T00:35:46.540Z,19.35
2018-08-21T00:35:50.738Z,19.34
2018-08-21T00:35:54.941Z,19.34
2018-08-21T00:35:59.250Z,19.33
2018-08-21T00:36:03.452Z,19.34
2018-08-21T00:36:07.546Z,19.33
2018-08-21T00:36:11.746Z,19.33
2018-08-21T00:36:15.944Z,19.34
2018-08-21T00:36:20.145Z,19.33
2018-08-21T00:36:24.454Z,19.33
2018-08-21T00:36:28.550Z,19.33
2018-08-21T00:36:32.533Z,19.33
2018-08-21T00:36:36.739Z,19.32
2018-08-21T00:36:40.824Z,19.33
2018-08-21T00:36:44.917Z,19.33
2018-08-21T00:36:49.118Z,19.33
2018-08-21T00:36:53.420Z,19.33
2018-08-21T00:36:57.403Z,19.33
2018-08-21T00:37:01.606Z,19.33
2018-08-21T00:37:05.799Z,19.33
2018-08-21T00:37:09.999Z,19.33
2018-08-21T00:37:14.101Z,19.32
2018-08-21T00:37:18.410Z,19.33
2018-08-21T00:37:22.604Z,19.32
2018-08-21T00:37:26.691Z,19.33
2018-08-21T00:37:30.676Z,19.33
2018-08-21T00:37:34.774Z,19.33
2018-08-21T00:37:39.071Z,19.33
2018-08-21T00:37:43.159Z,19.33
2018-08-21T00:37:47.358Z,19.32
2018-08-21T00:37:51.450Z,19.33
2018-08-21T00:37:55.755Z,19.32
2018-08-21T00:37:59.996Z,19.32
2018-08-21T00:38:03.985Z,19.32
2018-08-21T00:38:08.081Z,19.32
2018-08-21T00:38:12.389Z,19.32
2018-08-21T00:38:16.483Z,19.32
2018-08-21T00:38:20.680Z,19.31
2018-08-21T00:38:24.773Z,19.31
2018-08-21T00:38:28.880Z,19.32
2018-08-21T00:38:33.186Z,19.32
2018-08-21T00:38:37.281Z,19.32
2018-08-21T00:38:41.373Z,19.32
2018-08-21T00:38:45.571Z,19.32
2018-08-21T00:38:49.918Z,19.32
2018-08-21T00:38:54.111Z,19.31
2018-08-21T00:38:58.095Z,19.31
2018-08-21T00:39:02.297Z,19.31
2018-08-21T00:39:06.488Z,19.31
2018-08-21T00:39:10.685Z,19.3
2018-08-21T00:39:14.880Z,19.3
2018-08-21T00:39:19.080Z,19.31
2018-08-21T00:39:23.215Z,19.31
2018-08-21T00:39:27.530Z,19.3
2018-08-21T00:39:31.837Z,19.31
2018-08-21T00:39:36.038Z,19.31
2018-08-21T00:39:40.131Z,19.3
2018-08-21T00:39:44.433Z,19.31
2018-08-21T00:39:48.624Z,19.3
2018-08-21T00:39:52.820Z,19.31
2018-08-21T00:39:57.016Z,19.3
2018-08-21T00:40:01.215Z,19.3
2018-08-21T00:40:05.214Z,19.3
2018-08-21T00:40:09.415Z,19.29
2018-08-21T00:40:13.720Z,19.3
2018-08-21T00:40:17.919Z,19.3
2018-08-21T00:40:22.007Z,19.29
2018-08-21T00:40:26.197Z,19.3
2018-08-21T00:40:30.288Z,19.29
2018-08-21T00:40:34.375Z,19.28
2018-08-21T00:40:38.571Z,19.29
2018-08-21T00:40:42.762Z,19.28
2018-08-21T00:40:47.178Z,19.3
2018-08-21T00:40:51.371Z,19.29
2018-08-21T00:40:55.567Z,19.28
2018-08-21T00:40:59.876Z,19.29
2018-08-21T00:41:03.864Z,19.28
2018-08-21T00:41:08.063Z,19.28
2018-08-21T00:41:12.540Z,19.28
2018-08-21T00:41:16.647Z,19.28
2018-08-21T00:41:20.876Z,19.28
2018-08-21T00:41:24.976Z,19.29
2018-08-21T00:41:29.284Z,19.28
2018-08-21T00:41:33.378Z,19.27
2018-08-21T00:41:37.688Z,19.28
2018-08-21T00:41:41.890Z,19.28
2018-08-21T00:41:46.258Z,19.28
2018-08-21T00:41:50.453Z,19.27
2018-08-21T00:41:54.654Z,19.28
2018-08-21T00:41:58.855Z,19.28
2018-08-21T00:42:03.266Z,19.27
2018-08-21T00:42:07.595Z,19.27
2018-08-21T00:42:11.899Z,19.28
2018-08-21T00:42:16.215Z,19.27
2018-08-21T00:42:20.525Z,19.27
2018-08-21T00:42:24.616Z,19.27
2018-08-21T00:42:28.917Z,19.28
2018-08-21T00:42:32.690Z,19.27
2018-08-21T00:42:36.887Z,19.27
2018-08-21T00:42:41.089Z,19.26
2018-08-21T00:42:45.183Z,19.27
2018-08-21T00:42:49.270Z,19.27
2018-08-21T00:42:53.576Z,19.26
2018-08-21T00:42:57.882Z,19.27
2018-08-21T00:43:01.977Z,19.27
2018-08-21T00:43:06.184Z,19.26
2018-08-21T00:43:10.386Z,19.27
2018-08-21T00:43:14.595Z,19.27
2018-08-21T00:43:18.586Z,19.26
2018-08-21T00:43:22.891Z,19.26
2018-08-21T00:43:27.195Z,19.26
2018-08-21T00:43:31.399Z,19.26
2018-08-21T00:43:35.611Z,19.26
2018-08-21T00:43:39.696Z,19.26
2018-08-21T00:43:43.996Z,19.27
2018-08-21T00:43:48.309Z,19.26
2018-08-21T00:43:52.509Z,19.27
2018-08-21T00:43:56.815Z,19.26
2018-08-21T00:44:01.012Z,19.27
2018-08-21T00:44:04.997Z,19.26
2018-08-21T00:44:09.197Z,19.26
2018-08-21T00:44:13.398Z,19.26
2018-08-21T00:44:17.594Z,19.25
2018-08-21T00:44:21.788Z,19.26
2018-08-21T00:44:25.877Z,19.26
2018-08-21T00:44:29.974Z,19.25
2018-08-21T00:44:34.064Z,19.26
2018-08-21T00:44:38.370Z,19.25
2018-08-21T00:44:42.679Z,19.25
2018-08-21T00:44:46.563Z,19.26
2018-08-21T00:44:50.864Z,19.25
2018-08-21T00:44:55.168Z,19.25
2018-08-21T00:44:59.159Z,19.26
2018-08-21T00:45:03.144Z,19.25
2018-08-21T00:45:07.244Z,19.25
2018-08-21T00:45:11.562Z,19.25
2018-08-21T00:45:15.652Z,19.25
2018-08-21T00:45:19.847Z,19.25
2018-08-21T00:45:24.047Z,19.26
2018-08-21T00:45:28.137Z,19.24
2018-08-21T00:45:32.343Z,19.25
2018-08-21T00:45:36.430Z,19.26
2018-08-21T00:45:40.735Z,19.25
2018-08-21T00:45:44.960Z,19.25
2018-08-21T00:45:49.161Z,19.25
2018-08-21T00:45:53.352Z,19.25
2018-08-21T00:45:57.489Z,19.25
2018-08-21T00:46:01.683Z,19.24
2018-08-21T00:46:05.877Z,19.24
2018-08-21T00:46:09.966Z,19.25
2018-08-21T00:46:14.061Z,19.25
2018-08-21T00:46:18.151Z,19.25
2018-08-21T00:46:22.457Z,19.25
2018-08-21T00:46:26.764Z,19.24
2018-08-21T00:46:30.966Z,19.24
2018-08-21T00:46:35.059Z,19.25
2018-08-21T00:46:39.048Z,19.24
2018-08-21T00:46:43.139Z,19.24
2018-08-21T00:46:47.486Z,19.24
2018-08-21T00:46:51.576Z,19.24
2018-08-21T00:46:55.776Z,19.24
2018-08-21T00:47:00.097Z,19.25
2018-08-21T00:47:04.293Z,19.25
2018-08-21T00:47:08.597Z,19.24
2018-08-21T00:47:12.898Z,19.24
2018-08-21T00:47:17.199Z,19.24
2018-08-21T00:47:21.509Z,19.25
2018-08-21T00:47:25.713Z,19.24
2018-08-21T00:47:29.813Z,19.24
2018-08-21T00:47:33.801Z,19.24
2018-08-21T00:47:37.998Z,19.24
2018-08-21T00:47:42.096Z,19.23
2018-08-21T00:47:46.188Z,19.24
2018-08-21T00:47:50.392Z,19.23
2018-08-21T00:47:54.711Z,19.24
2018-08-21T00:47:58.696Z,19.24
2018-08-21T00:48:02.994Z,19.23
2018-08-21T00:48:07.196Z,19.23
2018-08-21T00:48:11.297Z,19.24
2018-08-21T00:48:15.417Z,19.24
2018-08-21T00:48:19.732Z,19.24
2018-08-21T00:48:24.034Z,19.24
2018-08-21T00:48:28.230Z,19.23
2018-08-21T00:48:32.540Z,19.24
2018-08-21T00:48:36.850Z,19.23
2018-08-21T00:48:40.834Z,19.24
2018-08-21T00:48:44.827Z,19.24
2018-08-21T00:48:49.025Z,19.23
2018-08-21T00:48:53.122Z,19.23
2018-08-21T00:48:57.227Z,19.23
2018-08-21T00:49:01.418Z,19.23
2018-08-21T00:49:05.519Z,19.23
2018-08-21T00:49:09.714Z,19.23
2018-08-21T00:49:13.951Z,19.23
2018-08-21T00:49:17.945Z,19.23
2018-08-21T00:49:22.143Z,19.22
2018-08-21T00:49:26.345Z,19.22
2018-08-21T00:49:30.435Z,19.23
2018-08-21T00:49:34.740Z,19.23
2018-08-21T00:49:38.942Z,19.22
2018-08-21T00:49:43.145Z,19.22
2018-08-21T00:49:47.450Z,19.23
2018-08-21T00:49:51.759Z,19.22
2018-08-21T00:49:55.959Z,19.22
2018-08-21T00:50:00.046Z,19.23
2018-08-21T00:50:04.138Z,19.22
2018-08-21T00:50:08.337Z,19.22
2018-08-21T00:50:12.225Z,19.23
2018-08-21T00:50:16.458Z,19.22
2018-08-21T00:50:20.661Z,19.21
2018-08-21T00:50:24.974Z,19.22
2018-08-21T00:50:29.182Z,19.23
2018-08-21T00:50:33.271Z,19.22
2018-08-21T00:50:37.477Z,19.22
2018-08-21T00:50:41.682Z,19.22
2018-08-21T00:50:45.996Z,19.22
2018-08-21T00:50:50.090Z,19.22
2018-08-21T00:50:54.391Z,19.21
2018-08-21T00:50:58.694Z,19.21
2018-08-21T00:51:02.795Z,19.22
2018-08-21T00:51:07.002Z,19.22
2018-08-21T00:51:11.096Z,19.21
2018-08-21T00:51:15.193Z,19.22
2018-08-21T00:51:19.280Z,19.22
2018-08-21T00:51:23.381Z,19.21
2018-08-21T00:51:27.582Z,19.21
2018-08-21T00:51:31.570Z,19.22
2018-08-21T00:51:35.871Z,19.22
2018-08-21T00:51:40.104Z,19.21
2018-08-21T00:51:44.402Z,19.22
2018-08-21T00:51:48.601Z,19.22
2018-08-21T00:51:52.808Z,19.22
2018-08-21T00:51:57.010Z,19.21
2018-08-21T00:52:01.221Z,19.21
2018-08-21T00:52:05.521Z,19.21
2018-08-21T00:52:09.823Z,19.22
2018-08-21T00:52:14.025Z,19.21
2018-08-21T00:52:18.336Z,19.21
2018-08-21T00:52:22.533Z,19.22
2018-08-21T00:52:26.518Z,19.21
2018-08-21T00:52:30.614Z,19.21
2018-08-21T00:52:34.709Z,19.21
2018-08-21T00:52:38.905Z,19.21
2018-08-21T00:52:43.103Z,19.21
2018-08-21T00:52:47.419Z,19.22
2018-08-21T00:52:51.723Z,19.21
2018-08-21T00:52:55.924Z,19.22
2018-08-21T00:53:00.125Z,19.22
2018-08-21T00:53:04.325Z,19.21
2018-08-21T00:53:08.533Z,19.21
2018-08-21T00:53:12.836Z,19.22
2018-08-21T00:53:17.148Z,19.21
2018-08-21T00:53:21.454Z,19.21
2018-08-21T00:53:25.755Z,19.21
2018-08-21T00:53:30.073Z,19.21
2018-08-21T00:53:34.276Z,19.21
2018-08-21T00:53:38.473Z,19.22
2018-08-21T00:53:42.681Z,19.21
2018-08-21T00:53:46.880Z,19.21
2018-08-21T00:53:50.971Z,19.22
2018-08-21T00:53:55.060Z,19.2
2018-08-21T00:53:59.043Z,19.21
2018-08-21T00:54:03.147Z,19.21
2018-08-21T00:54:07.128Z,19.21